Time;durP1;ratioP1;P1;durP2;ratioP2;P2;SDS_P1;SDS_P2;PMS_P1;PMS_P2;Temp;Humidity;BMP_temperature;BMP_pressure;BME280_temperature;BME280_humidity;BME280_pressure;Samples;Min_cycle;Max_cycle;Signal;HPM_P1;HPM_P2
2021/12/01 00:00:00;;;;;;;17.80;13.07;;;;;;;8.98;100.00;100097.72;5062341;28;20028;-60
2021/12/01 00:02:26;;;;;;;15.13;11.55;;;;;;;8.96;100.00;100089.09;5065031;28;20086;-60
2021/12/01 00:04:51;;;;;;;12.90;10.65;;;;;;;8.97;100.00;100078.34;5061252;28;20275;-60
2021/12/01 00:07:17;;;;;;;14.05;9.90;;;;;;;8.97;100.00;100083.63;5065472;28;20032;-60
2021/12/01 00:09:43;;;;;;;11.75;10.23;;;;;;;8.95;100.00;100064.44;5057888;28;20082;-61
2021/12/01 00:12:08;;;;;;;12.27;9.35;;;;;;;8.99;100.00;100059.63;5065962;28;20032;-60
2021/12/01 00:14:33;;;;;;;10.50;8.98;;;;;;;8.95;100.00;100045.91;5066478;28;20021;-60
2021/12/01 00:16:59;;;;;;;11.50;9.15;;;;;;;8.97;100.00;100043.91;5067470;28;20033;-60
2021/12/01 00:19:24;;;;;;;11.02;8.98;;;;;;;8.96;100.00;100042.28;5064241;28;20494;-60
2021/12/01 00:21:49;;;;;;;11.23;8.98;;;;;;;8.97;100.00;100035.16;5056454;28;20108;-60
2021/12/01 00:24:15;;;;;;;11.43;9.13;;;;;;;8.98;100.00;100031.50;5061936;28;20032;-60
2021/12/01 00:26:40;;;;;;;10.13;9.00;;;;;;;8.96;100.00;100014.94;5064222;28;20024;-60
2021/12/01 00:29:05;;;;;;;11.05;8.85;;;;;;;8.97;100.00;100006.84;5049887;28;20046;-60
2021/12/01 00:31:33;;;;;;;10.20;8.63;;;;;;;8.97;100.00;100004.19;5066160;28;20037;-60
2021/12/01 00:33:58;;;;;;;10.10;8.43;;;;;;;8.97;100.00;100011.31;5060940;28;20032;-60
2021/12/01 00:36:27;;;;;;;9.98;8.35;;;;;;;8.95;100.00;99982.34;5064791;28;20031;-60
2021/12/01 00:38:53;;;;;;;9.60;8.60;;;;;;;8.96;100.00;99972.56;5061377;28;20089;-60
2021/12/01 00:41:21;;;;;;;9.77;8.18;;;;;;;8.98;100.00;99987.31;5065611;28;20028;-60
2021/12/01 00:43:46;;;;;;;8.73;7.80;;;;;;;8.98;100.00;99976.72;5059032;28;20021;-60
2021/12/01 00:46:21;;;;;;;9.45;7.35;;;;;;;9.01;100.00;99957.00;5062691;28;20020;-60
2021/12/01 00:48:46;;;;;;;9.60;7.63;;;;;;;8.98;100.00;99954.72;5057137;28;20024;-60
2021/12/01 00:51:11;;;;;;;9.32;7.82;;;;;;;8.98;100.00;99950.22;5063268;28;20036;-60
2021/12/01 00:53:38;;;;;;;8.93;7.65;;;;;;;8.98;100.00;99955.53;5064447;28;20034;-60
2021/12/01 00:56:04;;;;;;;9.20;7.65;;;;;;;8.99;100.00;99953.69;5062808;28;20025;-60
2021/12/01 00:58:30;;;;;;;8.57;7.68;;;;;;;8.97;100.00;99959.19;5063728;28;20028;-60
2021/12/01 01:00:58;;;;;;;8.40;7.30;;;;;;;8.95;100.00;99939.97;5070515;28;20150;-60
2021/12/01 01:03:23;;;;;;;8.75;6.50;;;;;;;8.95;100.00;99950.56;5063336;28;20028;-60
2021/12/01 01:05:49;;;;;;;7.25;6.05;;;;;;;8.93;100.00;99936.69;5066109;28;20013;-60
2021/12/01 01:08:15;;;;;;;7.22;6.28;;;;;;;8.94;100.00;99943.63;5064306;28;20025;-60
2021/12/01 01:18:42;;;;;;;8.50;6.38;;;;;;;8.86;100.00;99933.13;5063861;28;20055;-60
2021/12/01 01:21:08;;;;;;;8.20;5.88;;;;;;;8.84;100.00;99911.31;5067567;28;20064;-60
2021/12/01 01:23:35;;;;;;;7.30;6.00;;;;;;;8.83;100.00;99909.66;5064671;28;20541;-60
2021/12/01 01:26:02;;;;;;;7.78;6.45;;;;;;;8.81;100.00;99913.50;5066959;28;20112;-60
2021/12/01 01:28:27;;;;;;;7.50;6.28;;;;;;;8.81;100.00;99898.44;5064696;28;20040;-60
2021/12/01 01:30:53;;;;;;;8.80;6.38;;;;;;;8.78;100.00;99896.16;5064702;28;20035;-60
2021/12/01 01:33:20;;;;;;;7.18;6.47;;;;;;;8.77;100.00;99878.63;5065481;28;20028;-60
2021/12/01 01:35:45;;;;;;;6.40;5.80;;;;;;;8.80;100.00;99882.75;5063506;28;20029;-60
2021/12/01 01:38:10;;;;;;;6.88;6.00;;;;;;;8.78;100.00;99876.81;5066988;28;20134;-60
2021/12/01 01:40:37;;;;;;;8.30;6.03;;;;;;;8.75;100.00;99867.41;5061610;28;20024;-60
2021/12/01 01:43:03;;;;;;;7.88;6.25;;;;;;;8.72;100.00;99875.72;5060438;28;20032;-60
2021/12/01 01:45:28;;;;;;;8.13;6.60;;;;;;;8.70;100.00;99869.78;5066250;28;20055;-60
2021/12/01 01:48:05;;;;;;;7.30;6.60;;;;;;;8.66;100.00;99863.19;5059790;28;20177;-60
2021/12/01 01:50:37;;;;;;;9.35;8.05;;;;;;;8.64;100.00;99851.97;5066066;28;20016;-60
2021/12/01 01:53:08;;;;;;;8.55;7.70;;;;;;;8.61;100.00;99860.28;5058730;28;20025;-61
2021/12/01 01:55:35;;;;;;;9.18;8.23;;;;;;;8.55;100.00;99855.72;5066603;28;20305;-60
2021/12/01 01:58:01;;;;;;;9.60;8.55;;;;;;;8.57;100.00;99838.66;5060789;28;20023;-60
2021/12/01 02:00:27;;;;;;;10.10;9.00;;;;;;;8.51;100.00;99839.38;5059573;28;20024;-60
2021/12/01 02:02:55;;;;;;;11.10;9.45;;;;;;;8.51;100.00;99825.34;5063778;28;20479;-60
2021/12/01 02:05:21;;;;;;;11.15;9.85;;;;;;;8.46;100.00;99844.41;5058687;28;20052;-60
2021/12/01 02:07:47;;;;;;;11.27;10.18;;;;;;;8.45;100.00;99816.31;5063997;28;20024;-60
2021/12/01 02:10:14;;;;;;;12.13;9.90;;;;;;;8.42;100.00;99814.03;5057480;28;20055;-61
2021/12/01 02:12:39;;;;;;;11.50;10.07;;;;;;;8.40;100.00;99800.16;5065913;28;20052;-60
2021/12/01 02:15:07;;;;;;;10.60;9.50;;;;;;;8.41;100.00;99800.97;5061056;28;20102;-60
2021/12/01 02:17:32;;;;;;;9.48;8.55;;;;;;;8.37;100.00;99780.16;5065964;28;20126;-61
2021/12/01 02:19:57;;;;;;;9.75;8.45;;;;;;;8.35;100.00;99807.78;5066217;28;20021;-60
2021/12/01 02:22:23;;;;;;;9.90;8.50;;;;;;;8.31;100.00;99767.63;5066958;28;20052;-60
2021/12/01 02:24:48;;;;;;;9.35;8.45;;;;;;;8.32;100.00;99777.22;5066155;28;20095;-60
2021/12/01 02:27:14;;;;;;;9.50;8.60;;;;;;;8.24;100.00;99758.78;5068315;28;20024;-60
2021/12/01 02:29:39;;;;;;;9.70;8.70;;;;;;;8.20;100.00;99741.66;5070569;28;20095;-60
2021/12/01 02:32:05;;;;;;;8.60;7.75;;;;;;;8.25;100.00;99772.84;5068524;28;20059;-60
2021/12/01 02:34:33;;;;;;;7.75;7.05;;;;;;;8.23;100.00;99733.34;5070888;28;20458;-60
2021/12/01 02:36:59;;;;;;;7.50;6.82;;;;;;;8.22;100.00;99733.53;5068650;28;20487;-60
2021/12/01 02:39:26;;;;;;;8.02;7.22;;;;;;;8.21;100.00;99734.53;5051647;28;20060;-60
2021/12/01 02:41:54;;;;;;;7.10;6.40;;;;;;;8.17;100.00;99715.56;5069559;28;20032;-61
2021/12/01 02:44:21;;;;;;;7.93;7.22;;;;;;;8.13;100.00;99706.38;5060872;28;20116;-60
2021/12/01 02:46:47;;;;;;;7.70;6.90;;;;;;;8.14;100.00;99701.91;5067299;28;20070;-60
2021/12/01 02:49:12;;;;;;;6.55;5.95;;;;;;;8.12;100.00;99706.53;5068692;28;20460;-60
2021/12/01 02:51:38;;;;;;;7.63;6.32;;;;;;;8.09;100.00;99686.56;5069810;28;20519;-60
2021/12/01 02:54:06;;;;;;;6.95;6.35;;;;;;;8.06;100.00;99681.63;5064860;28;20108;-60
2021/12/01 02:56:33;;;;;;;7.60;6.80;;;;;;;8.05;100.00;99688.75;5068603;28;20025;-60
2021/12/01 02:59:02;;;;;;;7.30;6.60;;;;;;;8.05;100.00;99687.94;5068504;28;20031;-60
2021/12/01 03:01:28;;;;;;;6.50;5.90;;;;;;;8.04;100.00;99689.75;5068971;28;20252;-61
2021/12/01 03:03:54;;;;;;;8.52;5.93;;;;;;;7.98;100.00;99676.44;5070233;28;20029;-60
2021/12/01 03:06:24;;;;;;;7.60;6.30;;;;;;;7.98;100.00;99668.50;5069702;28;20024;-60
2021/12/01 03:08:50;;;;;;;8.77;6.67;;;;;;;7.94;100.00;99669.88;5066823;28;20024;-60
2021/12/01 03:11:16;;;;;;;8.10;7.27;;;;;;;7.91;100.00;99659.69;5069876;28;20471;-61
2021/12/01 03:13:41;;;;;;;7.10;6.40;;;;;;;7.88;100.00;99649.47;5069044;28;20051;-61
2021/12/01 03:16:07;;;;;;;7.80;6.80;;;;;;;7.88;100.00;99639.72;5069172;28;20029;-60
2021/12/01 03:18:33;;;;;;;7.60;6.90;;;;;;;7.86;100.00;99639.09;5067811;28;20254;-61
2021/12/01 03:20:59;;;;;;;7.50;6.80;;;;;;;7.85;100.00;99649.84;5069397;28;20024;-60
2021/12/01 03:23:25;;;;;;;7.20;6.57;;;;;;;7.85;100.00;99624.22;5068615;28;20115;-60
2021/12/01 03:25:51;;;;;;;7.50;6.70;;;;;;;7.84;100.00;99627.06;5065528;28;20013;-61
2021/12/01 03:28:18;;;;;;;7.50;6.70;;;;;;;7.82;100.00;99613.22;5067826;28;20648;-60
2021/12/01 03:30:44;;;;;;;10.20;7.20;;;;;;;7.81;100.00;99609.75;5070077;28;20020;-61
2021/12/01 03:33:13;;;;;;;7.90;6.83;;;;;;;7.80;100.00;99612.53;5068886;28;20031;-60
2021/12/01 03:35:41;;;;;;;7.57;6.82;;;;;;;7.78;100.00;99604.78;5069452;28;20027;-60
2021/12/01 03:38:06;;;;;;;7.83;7.10;;;;;;;7.76;100.00;99586.47;5067176;28;20403;-60
2021/12/01 03:40:32;;;;;;;7.23;6.50;;;;;;;7.77;100.00;99589.94;5067898;28;20487;-60
2021/12/01 03:42:57;;;;;;;7.40;6.38;;;;;;;7.73;100.00;99586.03;5064644;28;20038;-60
2021/12/01 03:45:23;;;;;;;7.73;6.90;;;;;;;7.74;100.00;99574.47;5068580;28;20052;-60
2021/12/01 03:47:48;;;;;;;7.30;6.07;;;;;;;7.74;100.00;99579.75;5064997;28;20021;-60
2021/12/01 03:50:13;;;;;;;6.83;5.83;;;;;;;7.68;100.00;99562.81;5065662;28;20531;-60
2021/12/01 03:52:40;;;;;;;7.13;5.70;;;;;;;7.72;100.00;99569.34;5068044;28;20035;-60
2021/12/01 03:55:07;;;;;;;7.97;6.23;;;;;;;7.75;100.00;99549.66;5068177;28;20502;-60
2021/12/01 03:57:33;;;;;;;6.30;5.70;;;;;;;7.73;99.93;99541.94;5068222;28;20119;-60
2021/12/01 03:59:58;;;;;;;6.53;5.90;;;;;;;7.79;99.23;99532.44;5068364;28;20103;-60
2021/12/01 04:02:24;;;;;;;6.13;5.30;;;;;;;7.86;99.43;99521.97;5068591;28;20111;-60
2021/12/01 04:04:49;;;;;;;5.30;4.80;;;;;;;7.93;98.60;99520.22;5068100;28;20033;-60
2021/12/01 04:07:15;;;;;;;5.70;4.53;;;;;;;7.97;97.67;99516.19;5068721;28;20115;-60
2021/12/01 04:09:42;;;;;;;4.70;4.30;;;;;;;8.01;97.15;99523.56;5067501;28;20020;-60
2021/12/01 04:12:08;;;;;;;5.00;4.50;;;;;;;8.05;96.63;99508.13;5070165;28;20090;-60
2021/12/01 04:14:33;;;;;;;4.53;4.13;;;;;;;8.07;96.61;99504.31;5067283;28;20396;-59
2021/12/01 04:16:59;;;;;;;5.07;4.03;;;;;;;8.11;95.75;99496.84;5067590;28;20024;-60
2021/12/01 04:19:24;;;;;;;4.20;3.80;;;;;;;8.12;95.60;99472.03;5064893;28;20012;-60
2021/12/01 04:21:49;;;;;;;4.57;4.10;;;;;;;8.14;95.29;99487.72;5063241;28;20447;-59
2021/12/01 04:24:15;;;;;;;3.90;3.60;;;;;;;8.15;94.79;99473.47;5067857;28;20028;-60
2021/12/01 04:26:40;;;;;;;4.70;3.87;;;;;;;8.16;94.28;99461.91;5063627;28;20021;-60
2021/12/01 04:29:06;;;;;;;4.40;4.00;;;;;;;8.11;94.60;99473.03;5063056;28;20115;-60
2021/12/01 04:31:34;;;;;;;4.70;4.20;;;;;;;8.05;94.64;99436.75;5067728;28;20028;-60
2021/12/01 04:34:00;;;;;;;5.40;4.88;;;;;;;7.95;94.54;99439.72;5062844;28;20028;-59
2021/12/01 04:36:33;;;;;;;5.20;4.70;;;;;;;7.87;94.57;99431.09;5065435;28;20028;-60
2021/12/01 04:39:00;;;;;;;8.10;5.90;;;;;;;7.92;94.89;99440.09;5062080;28;20421;-60
2021/12/01 04:41:28;;;;;;;6.20;5.60;;;;;;;7.88;94.71;99419.53;5065955;28;20051;-60
2021/12/01 04:43:54;;;;;;;6.80;6.03;;;;;;;7.78;95.35;99415.34;5067485;28;20103;-60
2021/12/01 04:46:20;;;;;;;7.10;6.27;;;;;;;7.71;95.44;99395.16;5065800;28;20005;-60
2021/12/01 04:48:47;;;;;;;7.10;6.37;;;;;;;7.64;95.59;99400.38;5064504;28;20064;-60
2021/12/01 04:51:12;;;;;;;8.50;6.93;;;;;;;7.56;96.16;99394.38;5065840;28;20026;-60
2021/12/01 04:53:38;;;;;;;8.13;7.33;;;;;;;7.50;96.56;99397.75;5068360;28;20103;-60
2021/12/01 04:56:04;;;;;;;9.37;6.97;;;;;;;7.45;96.96;99375.34;5067687;28;20031;-61
2021/12/01 04:58:30;;;;;;;9.07;7.57;;;;;;;7.42;97.78;99390.75;5067616;28;20020;-61
2021/12/01 05:00:57;;;;;;;8.10;7.10;;;;;;;7.38;97.82;99386.84;5068477;28;20560;-60
2021/12/01 05:03:23;;;;;;;8.57;7.33;;;;;;;7.30;98.75;99364.03;5066478;28;20071;-60
2021/12/01 05:05:49;;;;;;;8.97;7.70;;;;;;;7.30;98.67;99379.06;5062360;28;20048;-61
2021/12/01 05:08:14;;;;;;;7.97;6.87;;;;;;;7.31;98.81;99370.13;5063282;28;20020;-60
2021/12/01 05:10:39;;;;;;;7.60;6.90;;;;;;;7.22;99.24;99363.28;5067707;28;20026;-60
2021/12/01 05:13:05;;;;;;;7.80;7.00;;;;;;;7.26;99.17;99385.72;5062665;28;20054;-61
2021/12/01 05:15:30;;;;;;;9.17;7.27;;;;;;;7.26;99.55;99356.66;5066266;28;20032;-60
2021/12/01 05:17:55;;;;;;;8.33;6.90;;;;;;;7.23;99.73;99349.09;5061635;28;20396;-61
2021/12/01 05:20:20;;;;;;;9.10;7.40;;;;;;;7.20;100.00;99350.28;5067614;28;20135;-60
2021/12/01 05:22:46;;;;;;;7.13;6.47;;;;;;;7.18;100.00;99354.94;5068174;28;21439;-61
2021/12/01 05:25:11;;;;;;;10.00;7.10;;;;;;;7.19;100.00;99342.53;5059531;28;20250;-60
2021/12/01 05:27:37;;;;;;;7.70;6.73;;;;;;;7.17;100.00;99334.81;5063742;28;20016;-61
2021/12/01 05:30:04;;;;;;;7.97;6.53;;;;;;;7.14;100.00;99320.16;5061883;28;20727;-60
2021/12/01 05:32:31;;;;;;;7.30;6.23;;;;;;;7.14;100.00;99330.72;5066654;28;20008;-60
2021/12/01 05:34:56;;;;;;;8.13;6.00;;;;;;;7.13;100.00;99320.34;5067804;28;20472;-60
2021/12/01 05:37:22;;;;;;;7.37;6.20;;;;;;;7.12;100.00;99335.38;5063322;28;20093;-60
2021/12/01 05:39:47;;;;;;;6.43;5.57;;;;;;;7.13;100.00;99315.88;5066895;28;20095;-60
2021/12/01 05:42:13;;;;;;;5.83;4.87;;;;;;;7.13;100.00;99317.72;5066716;28;20591;-60
2021/12/01 05:44:39;;;;;;;6.97;5.00;;;;;;;7.13;100.00;99305.34;5063139;28;20533;-60
2021/12/01 05:47:05;;;;;;;5.73;4.70;;;;;;;7.12;100.00;99300.25;5066499;28;20027;-60
2021/12/01 05:49:30;;;;;;;4.60;4.20;;;;;;;7.10;100.00;99297.78;5064989;28;20025;-60
2021/12/01 05:51:56;;;;;;;4.37;3.97;;;;;;;7.11;100.00;99296.78;5067587;28;20085;-60
2021/12/01 05:54:21;;;;;;;4.83;3.93;;;;;;;7.12;100.00;99289.69;5064975;28;20028;-60
2021/12/01 05:56:46;;;;;;;4.43;3.90;;;;;;;7.11;100.00;99274.84;5067282;28;20501;-60
2021/12/01 05:59:12;;;;;;;4.80;4.00;;;;;;;7.09;100.00;99263.66;5066399;28;20013;-60
2021/12/01 06:01:37;;;;;;;4.60;4.20;;;;;;;7.09;100.00;99261.84;5063423;28;20039;-60
2021/12/01 06:04:02;;;;;;;4.70;3.63;;;;;;;7.06;100.00;99256.13;5069962;28;20024;-60
2021/12/01 06:06:28;;;;;;;5.57;3.83;;;;;;;7.07;100.00;99245.38;5070877;28;20020;-60
2021/12/01 06:08:55;;;;;;;7.17;4.30;;;;;;;7.07;100.00;99255.13;5081528;28;20029;-61
2021/12/01 06:11:21;;;;;;;4.43;3.70;;;;;;;7.08;100.00;99239.09;5073767;28;20066;-61
2021/12/01 06:13:48;;;;;;;4.80;3.80;;;;;;;7.08;100.00;99233.81;5066538;28;20059;-61
2021/12/01 06:16:14;;;;;;;5.60;4.00;;;;;;;7.08;100.00;99228.53;5069483;28;20025;-61
2021/12/01 06:18:39;;;;;;;3.57;3.20;;;;;;;7.10;100.00;99218.59;5070091;28;20431;-61
2021/12/01 06:21:05;;;;;;;3.90;3.50;;;;;;;7.10;100.00;99202.75;5069488;28;20103;-61
2021/12/01 06:23:30;;;;;;;3.97;3.57;;;;;;;7.12;100.00;99208.66;5069701;28;20379;-61
2021/12/01 06:25:55;;;;;;;4.10;3.60;;;;;;;7.13;100.00;99210.31;5069988;28;20369;-61
2021/12/01 06:28:21;;;;;;;3.73;3.30;;;;;;;7.13;100.00;99202.38;5067608;28;20590;-61
2021/12/01 06:30:46;;;;;;;3.83;3.37;;;;;;;7.14;100.00;99193.47;5067864;28;20020;-61
2021/12/01 06:33:11;;;;;;;4.00;3.50;;;;;;;7.11;100.00;99200.94;5068255;28;20029;-61
2021/12/01 06:35:36;;;;;;;4.53;3.70;;;;;;;7.15;100.00;99203.00;5069470;28;20101;-61
2021/12/01 06:38:03;;;;;;;3.73;3.43;;;;;;;7.16;100.00;99190.63;5069415;28;20032;-61
2021/12/01 06:40:29;;;;;;;4.30;3.73;;;;;;;7.16;100.00;99180.06;5061458;28;20063;-61
2021/12/01 06:42:54;;;;;;;4.90;3.80;;;;;;;7.18;100.00;99182.50;5069478;28;20467;-61
2021/12/01 06:45:19;;;;;;;4.50;4.10;;;;;;;7.17;100.00;99167.69;5070225;28;20529;-60
2021/12/01 06:47:45;;;;;;;4.77;4.37;;;;;;;7.19;100.00;99184.16;5065827;28;20055;-61
2021/12/01 06:50:13;;;;;;;6.07;4.43;;;;;;;7.18;100.00;99175.41;5069167;28;20534;-61
2021/12/01 06:52:38;;;;;;;5.80;5.20;;;;;;;7.18;100.00;99166.69;5067577;28;20029;-61
2021/12/01 06:55:07;;;;;;;5.73;5.07;;;;;;;7.21;100.00;99156.56;5069685;28;20036;-61
2021/12/01 06:57:33;;;;;;;6.97;4.95;;;;;;;7.22;100.00;99162.66;5070545;28;20020;-61
2021/12/01 06:59:59;;;;;;;5.80;5.23;;;;;;;7.23;100.00;99154.56;5051217;28;20048;-61
2021/12/01 07:02:24;;;;;;;5.87;5.27;;;;;;;7.26;100.00;99177.94;5069940;28;20431;-61
2021/12/01 07:04:50;;;;;;;6.07;5.47;;;;;;;7.29;100.00;99163.53;5066398;28;20514;-61
2021/12/01 07:07:15;;;;;;;6.27;5.67;;;;;;;7.31;100.00;99161.53;5063798;28;20464;-61
2021/12/01 07:09:43;;;;;;;6.93;6.23;;;;;;;7.29;100.00;99161.72;5065074;28;20025;-61
2021/12/01 07:12:09;;;;;;;7.23;6.13;;;;;;;7.35;100.00;99146.94;5065570;28;20036;-61
2021/12/01 07:14:35;;;;;;;6.90;6.20;;;;;;;7.37;100.00;99143.09;5063645;28;20024;-61
2021/12/01 07:17:00;;;;;;;7.13;5.93;;;;;;;7.40;100.00;99153.25;5063198;28;20396;-61
2021/12/01 07:19:25;;;;;;;7.57;6.27;;;;;;;7.43;100.00;99168.72;5068229;28;20104;-61
2021/12/01 07:21:50;;;;;;;7.30;6.30;;;;;;;7.46;100.00;99168.34;5069429;28;20459;-62
2021/12/01 07:24:16;;;;;;;8.33;6.10;;;;;;;7.46;100.00;99149.03;5070121;28;20047;-61
2021/12/01 07:26:42;;;;;;;7.00;6.30;;;;;;;7.49;100.00;99153.13;5068379;28;20113;-61
2021/12/01 07:29:07;;;;;;;7.87;6.37;;;;;;;7.50;100.00;99160.84;5069306;28;20036;-61
2021/12/01 07:31:32;;;;;;;6.90;6.13;;;;;;;7.51;100.00;99141.34;5069796;28;20299;-61
2021/12/01 07:33:58;;;;;;;8.53;6.87;;;;;;;7.52;100.00;99153.56;5068623;28;20111;-61
2021/12/01 07:36:23;;;;;;;7.53;6.80;;;;;;;7.52;100.00;99140.38;5068747;28;20475;-61
2021/12/01 07:38:50;;;;;;;8.60;7.47;;;;;;;7.51;100.00;99130.78;5065296;28;20020;-60
2021/12/01 07:41:16;;;;;;;8.20;7.40;;;;;;;7.52;100.00;99118.38;5065169;28;20020;-61
2021/12/01 07:43:42;;;;;;;8.63;7.73;;;;;;;7.54;100.00;99121.69;5063566;28;20198;-60
2021/12/01 07:46:07;;;;;;;10.13;9.00;;;;;;;7.54;100.00;99116.41;5067449;28;20162;-61
2021/12/01 07:48:33;;;;;;;10.27;8.67;;;;;;;7.57;100.00;99130.03;5067708;28;20398;-61
2021/12/01 07:50:58;;;;;;;10.97;9.30;;;;;;;7.60;100.00;99119.09;5069204;28;20051;-61
2021/12/01 07:53:23;;;;;;;10.43;9.33;;;;;;;7.63;100.00;99123.16;5069138;28;20082;-60
2021/12/01 07:55:49;;;;;;;10.60;9.03;;;;;;;7.64;100.00;99107.13;5067943;28;20104;-61
2021/12/01 07:58:14;;;;;;;10.50;8.87;;;;;;;7.67;100.00;99098.78;5067989;28;20032;-60
2021/12/01 08:00:39;;;;;;;9.97;9.03;;;;;;;7.69;100.00;99104.69;5067561;28;20395;-61
2021/12/01 08:03:05;;;;;;;10.37;9.37;;;;;;;7.73;100.00;99105.13;5067313;28;20032;-60
2021/12/01 08:05:31;;;;;;;11.40;10.17;;;;;;;7.71;100.00;99099.22;5068041;28;20399;-61
2021/12/01 08:07:56;;;;;;;11.17;10.03;;;;;;;7.72;100.00;99108.78;5064112;28;20487;-60
2021/12/01 08:10:22;;;;;;;11.90;10.67;;;;;;;7.73;100.00;99102.47;5067779;28;20107;-61
2021/12/01 08:12:47;;;;;;;12.73;11.43;;;;;;;7.74;100.00;99099.63;5067023;28;20075;-61
2021/12/01 08:15:13;;;;;;;11.83;10.53;;;;;;;7.72;100.00;99093.75;5066281;28;20063;-61
2021/12/01 08:17:38;;;;;;;12.45;11.15;;;;;;;7.72;100.00;99101.66;5067592;28;20490;-61
2021/12/01 08:20:04;;;;;;;14.80;13.23;;;;;;;7.73;100.00;99095.38;5066859;28;20032;-61
2021/12/01 08:22:30;;;;;;;14.47;12.70;;;;;;;7.75;100.00;99089.88;5068536;28;20475;-61
2021/12/01 08:24:57;;;;;;;14.43;12.20;;;;;;;7.73;100.00;99084.81;5065496;28;20039;-61
2021/12/01 08:27:24;;;;;;;15.00;13.40;;;;;;;7.74;100.00;99094.34;5066493;28;20036;-61
2021/12/01 08:29:49;;;;;;;14.57;12.40;;;;;;;7.74;100.00;99089.06;5067168;28;20024;-60
2021/12/01 08:32:14;;;;;;;16.20;14.03;;;;;;;7.72;100.00;99072.59;5062408;28;20036;-61
2021/12/01 08:34:40;;;;;;;17.77;14.90;;;;;;;7.75;100.00;99090.69;5067298;28;20021;-60
2021/12/01 08:37:08;;;;;;;16.20;12.43;;;;;;;7.76;100.00;99083.59;5067435;28;20071;-60
2021/12/01 08:39:34;;;;;;;17.33;14.97;;;;;;;7.77;100.00;99072.81;5060124;28;20036;-61
2021/12/01 08:41:59;;;;;;;19.70;14.60;;;;;;;7.80;100.00;99078.72;5066559;28;20404;-60
2021/12/01 08:44:24;;;;;;;17.20;13.97;;;;;;;7.76;100.00;99051.88;5061979;28;20035;-60
2021/12/01 08:46:50;;;;;;;15.23;13.63;;;;;;;7.78;100.00;99050.69;5068344;28;20065;-60
2021/12/01 08:49:15;;;;;;;19.70;14.38;;;;;;;7.82;100.00;99053.75;5063889;28;20498;-61
2021/12/01 08:51:40;;;;;;;14.07;12.57;;;;;;;7.82;100.00;99053.75;5063999;28;20063;-61
2021/12/01 08:54:06;;;;;;;13.30;11.73;;;;;;;7.85;100.00;99063.13;5067915;28;20054;-60
2021/12/01 08:56:31;;;;;;;12.38;11.05;;;;;;;7.87;100.00;99055.81;5067379;28;20040;-60
2021/12/01 08:58:56;;;;;;;12.82;11.63;;;;;;;7.83;100.00;99055.41;5066233;28;20029;-60
2021/12/01 09:01:22;;;;;;;11.20;10.00;;;;;;;7.93;100.00;99078.81;5066098;28;20027;-60
2021/12/01 09:03:47;;;;;;;11.87;9.80;;;;;;;7.96;100.00;99079.22;5064227;28;20513;-60
2021/12/01 09:06:12;;;;;;;9.95;8.77;;;;;;;7.97;100.00;99085.31;5067455;28;20033;-60
2021/12/01 09:08:39;;;;;;;11.03;8.90;;;;;;;7.99;100.00;99081.47;5066242;28;20468;-60
2021/12/01 09:11:06;;;;;;;9.98;8.98;;;;;;;7.98;100.00;99073.75;5068408;28;20447;-61
2021/12/01 09:13:33;;;;;;;10.03;8.83;;;;;;;7.99;100.00;99067.44;5067673;28;20016;-60
2021/12/01 09:15:58;;;;;;;9.73;8.20;;;;;;;7.97;100.00;99083.50;5068132;28;20028;-60
2021/12/01 09:18:27;;;;;;;12.97;9.53;;;;;;;7.98;100.00;99085.13;5066483;28;20454;-60
2021/12/01 09:20:52;;;;;;;8.73;7.85;;;;;;;8.00;100.00;99106.06;5068520;28;20094;-61
2021/12/01 09:23:18;;;;;;;8.65;7.75;;;;;;;8.01;100.00;99097.94;5067234;28;20488;-60
2021/12/01 09:25:44;;;;;;;8.13;7.30;;;;;;;8.04;100.00;99107.31;5063888;28;20016;-60
2021/12/01 09:28:10;;;;;;;9.70;8.00;;;;;;;8.04;99.99;99099.38;5066160;28;20445;-60
2021/12/01 09:30:36;;;;;;;10.70;8.63;;;;;;;7.98;100.00;99102.81;5068227;28;20020;-60
2021/12/01 09:33:02;;;;;;;10.17;8.33;;;;;;;7.96;100.00;99107.50;5062053;28;20364;-61
2021/12/01 09:35:28;;;;;;;11.80;7.83;;;;;;;7.94;100.00;99109.50;5064285;28;20396;-61
2021/12/01 09:37:53;;;;;;;8.30;6.10;;;;;;;7.88;100.00;99115.59;5068783;28;20556;-60
2021/12/01 09:40:19;;;;;;;13.77;8.53;;;;;;;7.85;100.00;99121.25;5071382;28;20107;-60
2021/12/01 09:42:51;;;;;;;11.70;7.30;;;;;;;7.83;100.00;99131.22;5072050;28;20453;-60
2021/12/01 09:45:20;;;;;;;13.87;3.20;;;;;;;7.73;100.00;99134.19;5071790;28;20621;-60
2021/12/01 09:47:45;;;;;;;15.63;2.20;;;;;;;7.59;99.65;99133.31;5067478;28;20024;-60
2021/12/01 09:50:12;;;;;;;11.53;2.30;;;;;;;7.50;99.40;99141.53;5071797;28;20028;-60
2021/12/01 09:52:37;;;;;;;11.87;1.97;;;;;;;7.39;98.92;99135.78;5071286;28;20021;-60
2021/12/01 09:55:04;;;;;;;10.80;2.10;;;;;;;7.35;99.22;99133.72;5070800;28;20040;-60
2021/12/01 09:57:29;;;;;;;9.10;1.80;;;;;;;7.36;98.73;99124.78;5070322;28;20029;-60
2021/12/01 09:59:54;;;;;;;9.30;2.07;;;;;;;7.33;98.95;99133.91;5070696;28;20035;-60
2021/12/01 10:02:24;;;;;;;8.83;2.00;;;;;;;7.36;98.73;99122.97;5064813;28;20060;-60
2021/12/01 10:04:49;;;;;;;13.33;2.27;;;;;;;7.41;98.73;99112.66;5071525;28;20029;-60
2021/12/01 10:07:17;;;;;;;15.83;2.13;;;;;;;7.40;98.57;99118.94;5053506;28;20398;-60
2021/12/01 10:09:44;;;;;;;8.43;1.73;;;;;;;7.46;98.40;99127.91;5068999;28;20559;-60
2021/12/01 10:12:10;;;;;;;9.30;1.70;;;;;;;7.41;98.43;99111.81;5071809;28;20035;-60
2021/12/01 10:14:35;;;;;;;9.87;1.70;;;;;;;7.40;97.95;99118.13;5070291;28;20370;-59
2021/12/01 10:17:00;;;;;;;11.27;1.70;;;;;;;7.49;97.78;99106.38;5070046;28;20064;-60
2021/12/01 10:19:28;;;;;;;10.27;1.90;;;;;;;7.54;97.55;99119.84;5067213;28;20029;-60
2021/12/01 10:21:53;;;;;;;11.00;1.90;;;;;;;7.64;97.87;99125.59;5070555;28;20027;-60
2021/12/01 10:24:20;;;;;;;15.10;2.23;;;;;;;7.71;97.25;99128.28;5069204;28;20111;-60
2021/12/01 10:26:58;;;;;;;14.00;1.97;;;;;;;7.71;97.20;99123.81;5069434;28;20465;-60
2021/12/01 10:29:25;;;;;;;11.10;1.97;;;;;;;7.71;97.10;99129.09;5069358;28;20139;-60
2021/12/01 10:31:51;;;;;;;8.05;1.52;;;;;;;7.75;96.85;99138.25;5064609;28;20467;-60
2021/12/01 10:34:19;;;;;;;11.20;1.90;;;;;;;7.82;95.92;99135.69;5071145;28;20035;-60
2021/12/01 10:36:50;;;;;;;7.65;2.00;;;;;;;7.82;95.69;99143.63;5070608;28;20349;-60
2021/12/01 10:39:16;;;;;;;12.43;1.73;;;;;;;7.86;94.75;99136.94;5065246;28;20035;-59
2021/12/01 10:41:43;;;;;;;5.68;1.38;;;;;;;7.87;93.30;99125.34;5071115;28;20032;-60
2021/12/01 10:44:19;;;;;;;10.80;1.77;;;;;;;7.83;93.27;99123.28;5066932;28;20032;-60
2021/12/01 10:46:50;;;;;;;8.73;1.70;;;;;;;7.70;93.41;99124.81;5064577;28;20012;-59
2021/12/01 10:49:30;;;;;;;11.67;1.83;;;;;;;7.72;92.87;99121.97;5069164;28;20074;-60
2021/12/01 10:51:55;;;;;;;6.70;1.20;;;;;;;7.72;92.75;99112.22;5071016;28;20032;-60
2021/12/01 10:54:20;;;;;;;6.97;1.30;;;;;;;7.76;92.87;99115.31;5068473;28;20419;-60
2021/12/01 10:57:06;;;;;;;8.53;1.33;;;;;;;7.78;92.56;99100.06;5052941;28;20032;-60
2021/12/01 10:59:52;;;;;;;4.33;1.17;;;;;;;7.81;92.54;99107.63;5069376;28;20020;-60
2021/12/01 11:02:19;;;;;;;5.73;0.90;;;;;;;7.85;92.14;99108.06;5067347;28;20530;-60
2021/12/01 11:04:50;;;;;;;6.27;1.50;;;;;;;7.88;92.15;99116.41;5068596;28;20027;-60
2021/12/01 11:07:28;;;;;;;6.40;1.20;;;;;;;7.91;91.29;99100.16;5070484;28;20048;-59
2021/12/01 11:10:12;;;;;;;5.17;1.43;;;;;;;7.93;91.16;99108.69;5067977;28;20150;-59
2021/12/01 11:12:37;;;;;;;6.27;1.40;;;;;;;7.91;91.28;99107.25;5061091;28;20020;-60
2021/12/01 11:15:28;;;;;;;9.00;1.38;;;;;;;7.91;90.79;99101.97;5063980;28;20037;-60
2021/12/01 11:17:54;;;;;;;6.67;1.43;;;;;;;7.88;90.69;99111.13;5068472;28;20495;-59
2021/12/01 11:20:33;;;;;;;6.97;1.50;;;;;;;7.90;91.01;99132.06;5070260;28;20111;-60
2021/12/01 11:23:13;;;;;;;8.88;1.60;;;;;;;7.88;90.75;99112.94;5069695;28;20032;-59
2021/12/01 11:25:40;;;;;;;10.23;1.60;;;;;;;7.83;90.84;99113.53;5069942;28;20031;-59
2021/12/01 11:28:13;;;;;;;7.73;1.87;;;;;;;7.84;90.45;99138.94;5061210;28;20449;-59
2021/12/01 11:30:40;;;;;;;8.63;1.73;;;;;;;7.84;90.40;99114.34;5070032;28;20102;-59
2021/12/01 11:33:05;;;;;;;7.27;1.67;;;;;;;7.87;90.49;99121.88;5064186;28;20055;-59
2021/12/01 11:35:31;;;;;;;10.60;1.40;;;;;;;7.92;90.49;99108.91;5069365;28;20475;-60